createdAt,value
2023-01-02T00:00:21.052Z,8.62
2023-01-02T00:03:23.145Z,8.53
2023-01-02T00:06:25.325Z,8.46
2023-01-02T00:09:26.931Z,8.38
2023-01-02T00:12:28.489Z,8.32
2023-01-02T00:15:30.023Z,8.28
2023-01-02T00:18:31.613Z,8.25
2023-01-02T00:21:33.155Z,8.21
2023-01-02T00:24:34.677Z,8.17
2023-01-02T00:27:36.238Z,8.15
2023-01-02T00:30:39.158Z,8.13
2023-01-02T00:33:40.747Z,8.11
2023-01-02T00:36:42.321Z,8.08
2023-01-02T00:39:44.502Z,8.08
2023-01-02T00:42:46.107Z,8.08
2023-01-02T00:45:48.873Z,8.06
2023-01-02T00:48:50.461Z,8.06
2023-01-02T00:51:51.998Z,8.07
2023-01-02T00:54:53.554Z,8.09
2023-01-02T00:57:55.148Z,8.07
2023-01-02T01:00:56.778Z,8.07
2023-01-02T01:03:58.371Z,8.08
2023-01-02T01:07:00.139Z,8.09
2023-01-02T01:10:01.668Z,8.12
2023-01-02T01:13:04.087Z,8.13
2023-01-02T01:16:12.547Z,8.16
2023-01-02T01:19:14.197Z,8.18
2023-01-02T01:22:15.994Z,8.19
2023-01-02T01:25:17.874Z,8.21
2023-01-02T01:28:20.151Z,8.24
2023-01-02T01:31:22.806Z,8.25
2023-01-02T01:34:24.401Z,8.28
2023-01-02T01:37:26.085Z,8.30
2023-01-02T01:40:27.676Z,8.33
2023-01-02T01:43:43.369Z,8.36
2023-01-02T01:46:47.798Z,8.36
2023-01-02T01:50:09.343Z,8.37
2023-01-02T01:53:18.848Z,8.40
2023-01-02T01:56:20.569Z,8.40
2023-01-02T01:59:22.279Z,8.44
2023-01-02T02:02:24.415Z,8.46
2023-01-02T02:05:30.375Z,8.49
2023-01-02T02:08:36.180Z,8.52
2023-01-02T02:11:38.367Z,8.55
2023-01-02T02:14:40.129Z,8.55
2023-01-02T02:17:41.703Z,8.57
2023-01-02T02:20:55.547Z,8.59
2023-01-02T02:24:29.699Z,8.61
2023-01-02T02:27:56.006Z,8.61
2023-01-02T02:31:15.836Z,8.60
2023-01-02T02:34:27.366Z,8.62
2023-01-02T02:37:56.987Z,8.65
2023-01-02T02:41:26.295Z,8.67
2023-01-02T02:45:11.183Z,8.69
2023-01-02T02:48:49.693Z,8.71
2023-01-02T02:51:56.374Z,8.73
2023-01-02T02:55:00.821Z,8.76
2023-01-02T02:58:02.484Z,8.78
2023-01-02T03:01:13.405Z,8.79
2023-01-02T03:04:19.694Z,8.81
2023-01-02T03:07:35.769Z,8.82
2023-01-02T03:10:37.283Z,8.83
2023-01-02T03:13:50.719Z,8.83
2023-01-02T03:17:01.303Z,8.85
2023-01-02T03:20:13.164Z,8.85
2023-01-02T03:23:26.259Z,8.87
2023-01-02T03:26:31.829Z,8.90
2023-01-02T03:29:44.179Z,8.91
2023-01-02T03:33:02.986Z,8.93
2023-01-02T03:36:10.153Z,8.94
2023-01-02T03:39:17.002Z,8.98
2023-01-02T03:42:28.112Z,8.99
2023-01-02T03:45:37.652Z,9.04
2023-01-02T03:48:39.247Z,9.06
2023-01-02T03:51:41.871Z,9.09
2023-01-02T03:54:43.622Z,9.12
2023-01-02T03:57:48.822Z,9.15
2023-01-02T04:01:04.632Z,9.19
2023-01-02T04:04:12.316Z,9.22
2023-01-02T04:07:22.539Z,9.25
2023-01-02T04:10:25.349Z,9.27
2023-01-02T04:13:32.990Z,9.30
2023-01-02T04:16:36.416Z,9.31
2023-01-02T04:19:55.177Z,9.33
2023-01-02T04:23:06.053Z,9.36
2023-01-02T04:26:11.941Z,9.37
2023-01-02T04:29:13.662Z,9.39
2023-01-02T04:32:48.233Z,9.41
2023-01-02T04:35:50.078Z,9.43
2023-01-02T04:38:51.805Z,9.44
2023-01-02T04:41:53.390Z,9.46
2023-01-02T04:44:54.973Z,9.48
2023-01-02T04:47:56.491Z,9.50
2023-01-02T04:50:58.210Z,9.53
2023-01-02T04:53:59.736Z,9.55
2023-01-02T04:57:01.319Z,9.56
2023-01-02T05:00:05.408Z,9.58
2023-01-02T05:03:06.967Z,9.58
2023-01-02T05:06:09.223Z,9.59
2023-01-02T05:09:10.982Z,9.61
2023-01-02T05:12:12.538Z,9.62
2023-01-02T05:15:14.100Z,9.62
2023-01-02T05:18:15.653Z,9.64
2023-01-02T05:21:35.962Z,9.64
2023-01-02T05:24:37.482Z,9.65
2023-01-02T05:27:39.107Z,9.65
2023-01-02T05:30:40.706Z,9.66
2023-01-02T05:33:42.305Z,9.68
2023-01-02T05:36:44.001Z,9.70
2023-01-02T05:39:45.538Z,9.72
2023-01-02T05:42:47.047Z,9.71
2023-01-02T05:45:48.590Z,9.77
2023-01-02T05:48:50.164Z,9.78
2023-01-02T05:51:51.822Z,9.80
2023-01-02T05:54:53.405Z,9.82
2023-01-02T05:57:56.182Z,9.84
2023-01-02T06:01:03.923Z,10.00
2023-01-02T06:04:05.501Z,10.03
2023-01-02T06:07:07.037Z,10.06
2023-01-02T06:10:09.151Z,10.06
2023-01-02T06:13:10.666Z,10.07
2023-01-02T06:16:12.455Z,10.07
2023-01-02T06:19:14.016Z,10.07
2023-01-02T06:22:15.566Z,10.05
2023-01-02T06:25:17.171Z,10.05
2023-01-02T06:28:18.764Z,10.06
2023-01-02T06:31:22.091Z,10.05
2023-01-02T06:34:23.657Z,10.05
2023-01-02T06:37:25.214Z,10.05
2023-01-02T06:40:26.791Z,10.06
2023-01-02T06:43:29.715Z,10.07
2023-01-02T06:46:31.330Z,10.06
2023-01-02T06:49:32.875Z,10.07
2023-01-02T06:52:34.490Z,10.07
2023-01-02T06:55:36.063Z,10.09
2023-01-02T06:58:38.857Z,10.12
2023-01-02T07:01:40.574Z,10.11
2023-01-02T07:04:42.225Z,10.11
2023-01-02T07:07:43.821Z,10.13
2023-01-02T07:10:49.442Z,10.14
2023-01-02T07:13:55.010Z,10.14
2023-01-02T07:16:56.565Z,10.14
2023-01-02T07:20:01.986Z,10.14
2023-01-02T07:23:04.184Z,10.13
2023-01-02T07:26:07.442Z,10.32
2023-01-02T07:29:09.254Z,10.31
2023-01-02T07:32:10.847Z,10.30
2023-01-02T07:35:12.638Z,10.28
2023-01-02T07:38:14.195Z,10.28
2023-01-02T07:41:17.956Z,10.26
2023-01-02T07:44:19.499Z,10.25
2023-01-02T07:47:21.122Z,10.23
2023-01-02T07:50:22.678Z,10.22
2023-01-02T07:53:25.558Z,10.22
2023-01-02T07:56:27.203Z,10.20
2023-01-02T07:59:28.769Z,10.20
2023-01-02T08:02:30.624Z,10.23
2023-01-02T08:05:34.036Z,10.24
2023-01-02T08:08:36.250Z,10.22
2023-01-02T08:11:37.842Z,10.21
2023-01-02T08:14:39.462Z,10.21
2023-01-02T08:17:41.546Z,10.19
2023-01-02T08:20:43.207Z,10.18
2023-01-02T08:23:44.804Z,10.17
2023-01-02T08:26:46.334Z,10.16
2023-01-02T08:29:47.916Z,10.15
2023-01-02T08:32:49.527Z,10.14
2023-01-02T08:35:51.124Z,10.13
2023-01-02T08:38:52.804Z,10.13
2023-01-02T08:41:54.341Z,10.12
2023-01-02T08:44:55.957Z,10.12
2023-01-02T08:47:57.553Z,10.13
2023-01-02T08:50:59.073Z,10.14
2023-01-02T08:54:00.646Z,10.13
2023-01-02T08:57:02.488Z,10.14
2023-01-02T09:00:04.873Z,10.14
2023-01-02T09:03:06.536Z,10.16
2023-01-02T09:06:08.102Z,10.17
2023-01-02T09:09:12.899Z,10.17
2023-01-02T09:12:14.635Z,10.17
2023-01-02T09:15:16.172Z,10.19
2023-01-02T09:18:17.684Z,10.19
2023-01-02T09:21:19.309Z,10.19
2023-01-02T09:24:20.918Z,10.18
2023-01-02T09:27:22.537Z,10.19
2023-01-02T09:30:24.694Z,10.19
2023-01-02T09:33:26.507Z,10.18
2023-01-02T09:36:28.387Z,10.31
2023-01-02T09:39:32.623Z,10.61
2023-01-02T09:42:34.905Z,10.85
2023-01-02T09:45:42.108Z,10.83
2023-01-02T09:48:43.793Z,10.74
2023-01-02T09:51:45.777Z,10.65
2023-01-02T09:54:47.464Z,10.55
2023-01-02T09:58:02.451Z,10.49
2023-01-02T10:01:09.184Z,10.40
2023-01-02T10:04:29.877Z,10.32
2023-01-02T10:07:37.662Z,10.25
2023-01-02T10:11:04.126Z,10.17
2023-01-02T10:14:34.794Z,10.05
2023-01-02T10:17:46.408Z,9.93
2023-01-02T10:20:54.572Z,9.82
2023-01-02T10:24:19.081Z,9.71
2023-01-02T10:27:30.956Z,9.60
2023-01-02T10:30:38.219Z,9.50
2023-01-02T10:33:47.490Z,9.39
2023-01-02T10:36:50.106Z,9.30
2023-01-02T10:39:51.821Z,9.23
2023-01-02T10:42:59.768Z,9.15
2023-01-02T10:46:03.637Z,9.06
2023-01-02T10:49:07.962Z,8.98
2023-01-02T10:52:25.148Z,8.93
2023-01-02T10:55:32.812Z,8.86
2023-01-02T10:58:35.397Z,8.79
2023-01-02T11:01:59.235Z,8.75
2023-01-02T11:05:02.909Z,8.67
2023-01-02T11:08:13.614Z,8.59
2023-01-02T11:11:17.646Z,8.54
2023-01-02T11:14:32.061Z,8.51
2023-01-02T11:17:44.348Z,8.46
2023-01-02T11:20:53.457Z,8.37
2023-01-02T11:24:15.739Z,8.31
2023-01-02T11:27:17.363Z,8.28
2023-01-02T11:30:44.163Z,8.21
2023-01-02T11:33:46.886Z,8.14
2023-01-02T11:37:05.193Z,8.10
2023-01-02T11:40:26.142Z,8.08
2023-01-02T11:43:50.299Z,8.04
2023-01-02T11:46:53.432Z,8.02
2023-01-02T11:49:55.061Z,7.99
2023-01-02T11:53:02.395Z,7.98
2023-01-02T11:56:14.018Z,7.96
2023-01-02T11:59:28.081Z,7.93
2023-01-02T12:02:39.834Z,7.88
2023-01-02T12:06:06.341Z,7.84
2023-01-02T12:09:30.329Z,7.82
2023-01-02T12:12:31.829Z,7.82
2023-01-02T12:15:42.746Z,7.83
2023-01-02T12:19:11.018Z,7.81
2023-01-02T12:22:33.766Z,7.79
2023-01-02T12:25:50.594Z,7.76
2023-01-02T12:29:04.323Z,7.75
2023-01-02T12:32:14.773Z,7.71
2023-01-02T12:35:50.312Z,7.71
2023-01-02T12:39:14.843Z,7.69
2023-01-02T12:42:31.665Z,7.69
2023-01-02T12:45:48.400Z,7.67
2023-01-02T12:49:04.422Z,7.63
2023-01-02T12:52:17.492Z,7.70
2023-01-02T12:55:37.857Z,7.73
2023-01-02T12:58:54.609Z,7.72
2023-01-02T13:02:06.003Z,7.69
2023-01-02T13:05:14.244Z,7.66
2023-01-02T13:08:26.176Z,7.64
2023-01-02T13:11:33.851Z,7.57
2023-01-02T13:14:40.229Z,7.58
2023-01-02T13:17:44.587Z,7.55
2023-01-02T13:21:01.687Z,7.80
2023-01-02T13:24:04.022Z,7.83
2023-01-02T13:27:05.842Z,7.82
2023-01-02T13:30:07.814Z,7.78
2023-01-02T13:33:35.895Z,7.73
2023-01-02T13:36:41.176Z,7.69
2023-01-02T13:39:42.662Z,7.66
2023-01-02T13:42:59.603Z,7.63
2023-01-02T13:46:01.584Z,7.59
2023-01-02T13:49:09.788Z,7.55
2023-01-02T13:52:16.884Z,7.52
2023-01-02T13:55:21.178Z,7.48
2023-01-02T13:58:48.714Z,7.44
2023-01-02T14:02:21.416Z,7.39
2023-01-02T14:05:57.641Z,7.34
2023-01-02T14:09:05.134Z,7.28
2023-01-02T14:12:12.929Z,7.25
2023-01-02T14:15:21.266Z,7.21
2023-01-02T14:18:32.755Z,7.20
2023-01-02T14:21:41.962Z,7.18
2023-01-02T14:24:46.854Z,7.18
2023-01-02T14:27:54.981Z,7.16
2023-01-02T14:30:57.929Z,7.17
2023-01-02T14:34:00.849Z,7.16
2023-01-02T14:37:03.146Z,7.17
2023-01-02T14:40:22.958Z,7.17
2023-01-02T14:43:36.526Z,7.17
2023-01-02T14:46:38.321Z,7.16
2023-01-02T14:49:42.080Z,7.17
2023-01-02T14:52:51.750Z,7.16
2023-01-02T14:55:59.148Z,7.13
2023-01-02T14:59:02.806Z,7.14
2023-01-02T15:02:16.292Z,7.39
2023-01-02T15:05:32.175Z,7.45
2023-01-02T15:08:53.911Z,7.43
2023-01-02T15:12:17.492Z,7.40
2023-01-02T15:15:24.324Z,7.35
2023-01-02T15:18:30.915Z,7.31
2023-01-02T15:21:39.682Z,7.45
2023-01-02T15:24:47.394Z,7.43
2023-01-02T15:27:53.461Z,7.39
2023-01-02T15:31:04.520Z,7.35
2023-01-02T15:34:06.139Z,7.29
2023-01-02T15:37:07.710Z,7.24
2023-01-02T15:40:16.097Z,7.23
2023-01-02T15:43:36.318Z,7.19
2023-01-02T15:46:38.360Z,7.43
2023-01-02T15:49:42.809Z,7.48
2023-01-02T15:52:46.548Z,7.49
2023-01-02T15:55:48.308Z,7.47
2023-01-02T15:58:50.487Z,7.45
2023-01-02T16:01:52.317Z,7.43
2023-01-02T16:05:10.651Z,7.45
2023-01-02T16:08:23.344Z,7.48
2023-01-02T16:11:25.686Z,7.45
2023-01-02T16:14:44.405Z,7.45
2023-01-02T16:17:46.974Z,7.42
2023-01-02T16:20:49.489Z,7.38
2023-01-02T16:23:54.651Z,7.37
2023-01-02T16:26:56.295Z,7.36
2023-01-02T16:29:58.534Z,7.35
2023-01-02T16:33:02.722Z,7.35
2023-01-02T16:36:04.227Z,7.35
2023-01-02T16:40:00.901Z,7.35
2023-01-02T16:43:03.334Z,7.32
2023-01-02T16:46:10.640Z,7.29
2023-01-02T16:49:16.215Z,7.26
2023-01-02T16:52:17.989Z,7.25
2023-01-02T16:55:22.129Z,7.26
2023-01-02T16:58:25.428Z,7.24
2023-01-02T17:01:27.065Z,7.23
2023-01-02T17:04:28.629Z,7.19
2023-01-02T17:07:30.167Z,7.18
2023-01-02T17:10:31.901Z,7.16
2023-01-02T17:13:33.532Z,7.18
2023-01-02T17:16:35.119Z,7.22
2023-01-02T17:19:36.742Z,7.23
2023-01-02T17:22:39.193Z,7.24
2023-01-02T17:25:45.459Z,7.25
2023-01-02T17:28:47.018Z,7.24
2023-01-02T17:31:48.642Z,7.23
2023-01-02T17:34:50.430Z,7.26
2023-01-02T17:37:52.028Z,7.26
2023-01-02T17:40:58.322Z,7.25
2023-01-02T17:44:02.458Z,7.23
2023-01-02T17:47:38.910Z,7.20
2023-01-02T17:50:26.938Z,7.17
2023-01-02T17:53:28.479Z,7.13
2023-01-02T17:56:31.007Z,7.11
2023-01-02T17:59:34.394Z,7.08
2023-01-02T18:02:36.121Z,7.04
2023-01-02T18:05:37.928Z,7.01
2023-01-02T18:08:39.494Z,6.97
2023-01-02T18:11:41.128Z,6.93
2023-01-02T18:14:45.590Z,6.86
2023-01-02T18:17:47.918Z,6.82
2023-01-02T18:20:49.478Z,6.80
2023-01-02T18:23:56.096Z,6.78
2023-01-02T18:27:24.313Z,6.74
2023-01-02T18:30:26.703Z,6.69
2023-01-02T18:33:28.695Z,6.67
2023-01-02T18:36:31.612Z,6.67
2023-01-02T18:39:42.613Z,6.66
2023-01-02T18:42:46.752Z,6.67
2023-01-02T18:45:51.780Z,6.68
2023-01-02T18:48:54.634Z,6.69
2023-01-02T18:52:11.506Z,6.70
2023-01-02T18:55:13.043Z,6.70
2023-01-02T18:58:38.035Z,6.67
2023-01-02T19:01:45.250Z,6.66
2023-01-02T19:04:46.907Z,6.66
2023-01-02T19:07:48.546Z,6.66
2023-01-02T19:10:58.149Z,6.98
2023-01-02T19:13:59.719Z,7.12
2023-01-02T19:17:26.905Z,7.13
2023-01-02T19:20:28.451Z,7.10
2023-01-02T19:23:57.995Z,7.03
2023-01-02T19:26:59.837Z,6.93
2023-01-02T19:30:02.477Z,6.83
2023-01-02T19:33:31.716Z,6.73
2023-01-02T19:36:37.527Z,6.63
2023-01-02T19:39:51.064Z,6.55
2023-01-02T19:42:54.302Z,6.45
2023-01-02T19:45:55.992Z,6.37
2023-01-02T19:48:57.631Z,6.31
2023-01-02T19:51:59.235Z,6.26
2023-01-02T19:55:00.838Z,6.19
2023-01-02T19:58:05.687Z,6.10
2023-01-02T20:01:07.386Z,6.04
2023-01-02T20:04:08.975Z,5.97
2023-01-02T20:07:11.134Z,5.92
2023-01-02T20:10:13.846Z,5.88
2023-01-02T20:13:15.413Z,5.85
2023-01-02T20:16:17.220Z,5.82
2023-01-02T20:19:18.784Z,5.79
2023-01-02T20:22:20.807Z,5.76
2023-01-02T20:25:25.386Z,5.72
2023-01-02T20:28:26.930Z,5.66
2023-01-02T20:31:28.529Z,5.60
2023-01-02T20:34:30.119Z,5.58
2023-01-02T20:37:31.722Z,5.56
2023-01-02T20:40:33.305Z,5.53
2023-01-02T20:43:34.858Z,5.51
2023-01-02T20:46:36.894Z,5.46
2023-01-02T20:49:39.399Z,5.44
2023-01-02T20:52:40.988Z,5.40
2023-01-02T20:55:42.672Z,5.36
2023-01-02T20:58:44.436Z,5.34
2023-01-02T21:01:46.214Z,5.29
2023-01-02T21:04:47.918Z,5.26
2023-01-02T21:07:49.549Z,5.24
2023-01-02T21:10:51.128Z,5.21
2023-01-02T21:13:52.685Z,5.18
2023-01-02T21:16:54.793Z,5.17
2023-01-02T21:19:56.342Z,5.15
2023-01-02T21:22:57.953Z,5.12
2023-01-02T21:25:59.865Z,5.11
2023-01-02T21:29:03.045Z,5.08
2023-01-02T21:32:04.750Z,5.08
2023-01-02T21:35:07.479Z,5.08
2023-01-02T21:38:10.115Z,5.07
2023-01-02T21:41:30.267Z,5.04
2023-01-02T21:44:31.860Z,5.02
2023-01-02T21:47:33.423Z,5.04
2023-01-02T21:50:35.077Z,5.02
2023-01-02T21:53:36.663Z,5.00
2023-01-02T21:56:38.198Z,5.01
2023-01-02T21:59:39.833Z,4.99
2023-01-02T22:02:42.027Z,4.96
2023-01-02T22:05:43.635Z,4.95
2023-01-02T22:08:45.201Z,4.96
2023-01-02T22:11:55.929Z,4.96
2023-01-02T22:14:57.638Z,4.93
2023-01-02T22:17:59.230Z,4.89
2023-01-02T22:21:00.821Z,4.89
2023-01-02T22:24:02.422Z,4.87
2023-01-02T22:27:05.913Z,4.87
2023-01-02T22:30:31.410Z,4.86
2023-01-02T22:33:29.985Z,4.85
2023-01-02T22:36:31.690Z,4.85
2023-01-02T22:39:33.222Z,4.84
2023-01-02T22:43:10.109Z,4.82
2023-01-02T22:46:22.379Z,4.81
2023-01-02T22:49:27.153Z,4.82
2023-01-02T22:52:30.424Z,4.86
2023-01-02T22:55:31.972Z,4.85
2023-01-02T22:58:33.553Z,4.83
2023-01-02T23:01:38.249Z,4.84
2023-01-02T23:04:40.051Z,4.82
2023-01-02T23:07:41.634Z,4.81
2023-01-02T23:10:43.249Z,4.79
2023-01-02T23:13:45.438Z,4.77
2023-01-02T23:17:05.769Z,4.89
2023-01-02T23:20:07.835Z,4.87
2023-01-02T23:23:09.565Z,4.85
2023-01-02T23:26:14.780Z,4.79
2023-01-02T23:29:17.489Z,4.73
2023-01-02T23:32:19.127Z,4.68
2023-01-02T23:35:20.692Z,4.62
2023-01-02T23:38:22.271Z,4.59
2023-01-02T23:41:23.809Z,4.56
2023-01-02T23:44:26.511Z,4.52
2023-01-02T23:47:28.132Z,4.47
2023-01-02T23:50:29.652Z,4.43
2023-01-02T23:53:32.172Z,4.40
2023-01-02T23:56:36.396Z,4.34
2023-01-02T23:59:37.950Z,4.29
